Time;durP1;ratioP1;P1;durP2;ratioP2;P2;SDS_P1;SDS_P2;PMS_P1;PMS_P2;Temp;Humidity;BMP_temperature;BMP_pressure;BME280_temperature;BME280_humidity;BME280_pressure;Samples;Min_cycle;Max_cycle;Signal;HPM_P1;HPM_P2
2023/06/04 00:02:17;;;;;;;10.70;6.80;;;17.10;85.00;;;;;;5076364;28;20460;-75
2023/06/04 00:04:43;;;;;;;11.30;6.60;;;17.10;85.70;;;;;;5076586;28;20095;-75
2023/06/04 00:07:08;;;;;;;13.23;6.85;;;17.00;85.10;;;;;;5076755;28;20021;-75
2023/06/04 00:09:34;;;;;;;11.68;6.95;;;17.00;85.30;;;;;;5076473;28;20024;-74
2023/06/04 00:12:00;;;;;;;11.55;6.47;;;17.00;85.40;;;;;;5075086;28;20395;-75
2023/06/04 00:14:25;;;;;;;13.35;6.63;;;17.00;85.70;;;;;;5075759;28;20040;-75
2023/06/04 00:16:51;;;;;;;14.35;7.32;;;17.00;86.00;;;;;;5075077;28;20116;-75
2023/06/04 00:19:17;;;;;;;13.57;6.75;;;17.00;86.20;;;;;;5074737;28;20020;-75
2023/06/04 00:21:42;;;;;;;11.27;6.22;;;17.00;86.20;;;;;;5074501;28;20395;-75
2023/06/04 00:24:08;;;;;;;9.63;6.43;;;17.00;86.30;;;;;;5075998;28;20467;-75
2023/06/04 00:26:34;;;;;;;10.60;6.45;;;16.90;86.60;;;;;;5074530;28;20024;-74
2023/06/04 00:29:00;;;;;;;13.23;6.68;;;16.80;86.80;;;;;;5076272;28;20021;-74
2023/06/04 00:31:26;;;;;;;12.55;6.05;;;16.80;86.90;;;;;;5075826;28;20111;-74
2023/06/04 00:33:52;;;;;;;15.50;7.00;;;16.80;87.20;;;;;;5074725;28;20196;-74
2023/06/04 00:36:17;;;;;;;8.73;6.07;;;16.70;87.30;;;;;;5075657;28;20024;-74
2023/06/04 00:38:43;;;;;;;12.90;6.32;;;16.70;87.50;;;;;;5076061;28;20033;-74
2023/06/04 00:41:09;;;;;;;9.60;6.38;;;16.60;87.70;;;;;;5075567;28;20028;-74
2023/06/04 00:43:35;;;;;;;12.00;6.38;;;16.60;87.90;;;;;;5073986;28;20134;-73
2023/06/04 00:46:03;;;;;;;12.35;6.75;;;16.50;87.90;;;;;;5075226;28;20099;-74
2023/06/04 00:48:30;;;;;;;15.75;7.10;;;16.40;88.10;;;;;;5075625;28;20013;-75
2023/06/04 00:50:56;;;;;;;12.45;7.25;;;16.40;88.50;;;;;;5075273;28;20033;-75
2023/06/04 00:53:24;;;;;;;10.55;7.20;;;16.40;88.60;;;;;;5073874;28;20032;-75
2023/06/04 00:55:50;;;;;;;10.93;6.20;;;16.30;89.00;;;;;;5074682;28;20029;-75
2023/06/04 00:58:16;;;;;;;10.15;6.15;;;16.30;89.20;;;;;;5075733;28;20024;-75
2023/06/04 01:00:45;;;;;;;10.02;6.50;;;16.30;89.50;;;;;;5074914;28;20031;-75
2023/06/04 01:03:17;;;;;;;10.30;6.40;;;16.20;89.30;;;;;;5073847;28;20085;-75
2023/06/04 01:05:42;;;;;;;12.65;6.50;;;16.20;89.50;;;;;;5074803;28;20016;-74
2023/06/04 01:08:11;;;;;;;8.63;6.63;;;16.10;89.80;;;;;;5073368;28;20028;-74
2023/06/04 01:10:36;;;;;;;13.88;7.15;;;16.10;90.00;;;;;;5073535;28;20605;-74
2023/06/04 01:13:02;;;;;;;12.88;7.43;;;16.00;90.10;;;;;;5075304;28;20039;-73
2023/06/04 01:15:28;;;;;;;13.18;6.20;;;16.00;90.30;;;;;;5074003;28;20100;-75
2023/06/04 01:18:05;;;;;;;11.38;7.10;;;16.00;90.40;;;;;;5073647;28;20063;-75
2023/06/04 01:20:43;;;;;;;12.57;7.78;;;15.90;90.50;;;;;;5073829;28;20487;-75
2023/06/04 01:23:47;;;;;;;8.57;6.50;;;15.90;90.60;;;;;;5074207;28;20020;-75
2023/06/04 01:26:13;;;;;;;10.32;6.65;;;15.90;90.60;;;;;;5074724;28;20143;-75
2023/06/04 01:28:40;;;;;;;10.75;6.80;;;15.90;90.70;;;;;;5073339;28;20024;-75
2023/06/04 01:31:09;;;;;;;17.88;7.82;;;15.90;90.90;;;;;;5072971;28;20103;-75
2023/06/04 01:33:34;;;;;;;10.38;6.90;;;15.80;90.80;;;;;;5074620;28;20075;-76
2023/06/04 01:36:01;;;;;;;13.15;7.65;;;15.90;90.70;;;;;;5074562;28;20024;-76
2023/06/04 01:38:27;;;;;;;12.93;7.38;;;15.80;90.70;;;;;;5073008;28;20055;-76
2023/06/04 01:41:00;;;;;;;13.40;7.35;;;15.80;90.70;;;;;;5074414;28;20025;-75
2023/06/04 01:43:26;;;;;;;11.15;7.07;;;15.70;90.90;;;;;;5074212;28;20044;-75
2023/06/04 01:45:52;;;;;;;10.23;7.25;;;15.70;90.90;;;;;;5074204;28;20391;-74
2023/06/04 01:48:17;;;;;;;11.75;7.50;;;15.60;90.80;;;;;;5074290;28;20067;-75
2023/06/04 01:50:43;;;;;;;12.50;6.45;;;15.60;90.60;;;;;;5072889;28;20059;-75
2023/06/04 01:53:08;;;;;;;12.52;6.90;;;15.60;90.50;;;;;;5074111;28;20489;-75
2023/06/04 01:55:34;;;;;;;13.35;6.85;;;15.60;90.40;;;;;;5072316;28;20053;-76
2023/06/04 01:58:00;;;;;;;11.68;6.85;;;15.60;90.30;;;;;;5074594;28;20048;-75
2023/06/04 02:00:26;;;;;;;17.60;7.95;;;15.60;90.30;;;;;;5074090;28;20066;-75
2023/06/04 02:02:52;;;;;;;14.60;8.18;;;15.60;90.20;;;;;;5074311;28;20466;-75
2023/06/04 02:05:19;;;;;;;11.40;7.78;;;15.60;90.30;;;;;;5073567;28;20040;-76
2023/06/04 02:07:47;;;;;;;12.70;7.15;;;15.50;90.50;;;;;;5074121;28;20533;-75
2023/06/04 02:10:15;;;;;;;11.63;7.15;;;15.50;91.10;;;;;;5074570;28;20020;-75
2023/06/04 02:12:54;;;;;;;12.48;7.18;;;15.50;91.00;;;;;;5074661;28;20020;-75
2023/06/04 02:15:19;;;;;;;8.23;5.35;;;15.40;90.90;;;;;;5074537;28;20112;-75
2023/06/04 02:17:45;;;;;;;8.55;5.72;;;15.40;91.00;;;;;;5072578;28;20064;-76
2023/06/04 02:20:11;;;;;;;9.50;6.00;;;15.30;90.90;;;;;;5074730;28;20063;-74
2023/06/04 02:22:37;;;;;;;8.38;5.43;;;15.30;90.90;;;;;;5073568;28;20356;-74
2023/06/04 02:25:04;;;;;;;13.80;6.20;;;15.30;90.80;;;;;;5074664;28;20021;-74
2023/06/04 02:27:30;;;;;;;14.18;6.32;;;15.30;90.80;;;;;;5074297;28;20382;-74
2023/06/04 02:29:56;;;;;;;12.80;6.38;;;15.20;90.60;;;;;;5073826;28;20028;-75
2023/06/04 02:32:21;;;;;;;13.32;6.40;;;15.20;90.80;;;;;;5073463;28;20037;-74
2023/06/04 02:34:48;;;;;;;12.15;6.63;;;15.20;90.90;;;;;;5073497;28;20047;-74
2023/06/04 02:37:14;;;;;;;12.27;7.55;;;15.20;91.10;;;;;;5073704;28;20532;-74
2023/06/04 02:39:40;;;;;;;13.82;8.20;;;15.20;91.30;;;;;;5073497;28;20020;-74
2023/06/04 02:42:06;;;;;;;11.18;7.22;;;15.10;91.50;;;;;;5073343;28;20577;-75
2023/06/04 02:44:32;;;;;;;13.50;8.32;;;15.10;91.60;;;;;;5073148;28;20116;-73
2023/06/04 02:46:57;;;;;;;11.35;7.32;;;15.00;91.80;;;;;;5073021;28;20021;-73
2023/06/04 02:49:23;;;;;;;15.55;8.00;;;15.00;92.20;;;;;;5073005;28;20036;-74
2023/06/04 02:51:49;;;;;;;9.70;7.32;;;15.00;92.00;;;;;;5073122;28;20399;-74
2023/06/04 02:54:16;;;;;;;9.82;6.13;;;14.90;92.00;;;;;;5072745;28;20020;-75
2023/06/04 02:56:43;;;;;;;10.85;6.75;;;14.90;92.00;;;;;;5073334;28;20024;-74
2023/06/04 02:59:09;;;;;;;9.85;5.95;;;14.90;91.90;;;;;;5072995;28;20399;-75
2023/06/04 03:01:35;;;;;;;8.73;5.55;;;14.80;91.80;;;;;;5072696;28;20048;-74
2023/06/04 03:04:04;;;;;;;15.77;5.43;;;14.80;91.80;;;;;;5073160;28;20471;-74
2023/06/04 03:06:32;;;;;;;7.93;5.30;;;14.70;91.70;;;;;;5071846;28;20048;-74
2023/06/04 03:08:58;;;;;;;9.80;5.95;;;14.70;91.70;;;;;;5072949;28;20558;-74
2023/06/04 03:11:23;;;;;;;10.18;5.95;;;14.70;91.60;;;;;;5072728;28;20028;-73
2023/06/04 03:13:51;;;;;;;9.45;6.15;;;14.60;91.80;;;;;;5071673;28;20479;-75
2023/06/04 03:16:17;;;;;;;8.88;5.78;;;14.50;91.90;;;;;;5072978;28;20112;-73
2023/06/04 03:18:44;;;;;;;9.63;6.25;;;14.50;92.10;;;;;;5073357;28;20443;-74
2023/06/04 03:21:11;;;;;;;9.25;5.63;;;14.50;92.00;;;;;;5072656;28;20029;-74
2023/06/04 03:23:37;;;;;;;10.18;6.40;;;14.40;92.00;;;;;;5072571;28;20021;-74
2023/06/04 03:26:03;;;;;;;9.82;5.80;;;14.40;92.10;;;;;;5072590;28;20025;-75
2023/06/04 03:28:30;;;;;;;11.65;6.47;;;14.40;92.10;;;;;;5071453;28;20028;-74
2023/06/04 03:30:55;;;;;;;9.88;5.57;;;14.40;92.30;;;;;;5075674;28;20029;-75
2023/06/04 03:33:21;;;;;;;9.38;5.57;;;14.40;92.30;;;;;;5075985;28;20103;-75
2023/06/04 03:35:47;;;;;;;10.02;5.82;;;14.30;92.30;;;;;;5076504;28;20016;-74
2023/06/04 03:38:15;;;;;;;9.52;5.43;;;14.30;92.30;;;;;;5077006;28;20116;-75
2023/06/04 03:40:40;;;;;;;9.02;5.10;;;14.20;92.40;;;;;;5076340;28;20028;-74
2023/06/04 03:43:06;;;;;;;8.48;5.68;;;14.20;92.40;;;;;;5076311;28;20024;-74
2023/06/04 03:45:32;;;;;;;10.23;5.35;;;14.30;92.60;;;;;;5077290;28;20394;-74
2023/06/04 03:47:57;;;;;;;8.13;5.18;;;14.30;92.50;;;;;;5076536;28;20070;-74
2023/06/04 03:50:23;;;;;;;11.30;5.75;;;14.30;92.40;;;;;;5076488;28;20074;-74
2023/06/04 03:52:49;;;;;;;7.55;5.45;;;14.20;92.30;;;;;;5077104;28;20475;-74
2023/06/04 03:55:14;;;;;;;8.75;5.60;;;14.20;92.40;;;;;;5075199;28;20100;-73
2023/06/04 03:57:41;;;;;;;9.48;5.88;;;14.20;92.60;;;;;;5076037;28;20675;-74
2023/06/04 04:00:11;;;;;;;9.63;6.43;;;14.20;92.70;;;;;;5076434;28;20024;-74
2023/06/04 04:02:37;;;;;;;12.73;6.30;;;14.20;92.90;;;;;;5076317;28;20028;-73
2023/06/04 04:05:03;;;;;;;9.50;5.80;;;14.20;92.80;;;;;;5076269;28;20497;-73
2023/06/04 04:07:29;;;;;;;8.80;5.25;;;14.20;92.70;;;;;;5076026;28;20024;-74
2023/06/04 04:09:55;;;;;;;8.75;5.18;;;14.20;92.70;;;;;;5075553;28;20016;-74
2023/06/04 04:12:20;;;;;;;9.30;5.35;;;14.20;92.50;;;;;;5075238;28;20028;-73
2023/06/04 04:14:47;;;;;;;7.68;4.90;;;14.30;92.30;;;;;;5073858;28;20540;-73
2023/06/04 04:17:16;;;;;;;6.78;4.35;;;14.20;92.20;;;;;;5075258;28;20070;-72
2023/06/04 04:19:41;;;;;;;9.52;5.05;;;14.30;92.10;;;;;;5073654;28;20021;-72
2023/06/04 04:22:08;;;;;;;8.25;4.70;;;14.30;91.90;;;;;;5073350;28;20028;-73
2023/06/04 04:24:36;;;;;;;7.57;4.40;;;14.30;91.90;;;;;;5074015;28;20025;-73
2023/06/04 04:27:03;;;;;;;8.57;4.88;;;14.40;92.00;;;;;;5074070;28;20438;-73
2023/06/04 04:29:32;;;;;;;7.20;4.45;;;14.40;91.70;;;;;;5072994;28;20027;-73
2023/06/04 04:32:02;;;;;;;7.65;4.25;;;14.60;91.50;;;;;;5072944;28;20040;-74
2023/06/04 04:34:28;;;;;;;9.85;4.07;;;14.70;91.20;;;;;;5074386;28;20079;-75
2023/06/04 04:36:54;;;;;;;10.18;3.83;;;14.70;90.80;;;;;;5074270;28;20025;-73
2023/06/04 04:39:26;;;;;;;7.90;4.43;;;14.80;90.60;;;;;;5074407;28;20098;-73
2023/06/04 04:41:52;;;;;;;5.22;3.80;;;14.80;90.10;;;;;;5073974;28;20052;-73
2023/06/04 04:44:17;;;;;;;6.30;3.40;;;14.90;90.00;;;;;;5073919;28;20118;-72
2023/06/04 04:46:43;;;;;;;6.10;3.25;;;14.90;89.40;;;;;;5073515;28;20025;-72
2023/06/04 04:49:09;;;;;;;8.68;3.60;;;15.00;88.90;;;;;;5073882;28;20028;-72
2023/06/04 04:51:36;;;;;;;4.78;3.47;;;15.00;88.50;;;;;;5072364;28;20063;-72
2023/06/04 04:54:02;;;;;;;8.50;4.00;;;15.10;88.30;;;;;;5073391;28;20139;-72
2023/06/04 04:56:28;;;;;;;9.50;4.28;;;15.20;88.10;;;;;;5073513;28;20033;-72
2023/06/04 04:58:54;;;;;;;5.32;3.70;;;15.30;87.90;;;;;;5073382;28;20025;-72
2023/06/04 05:01:21;;;;;;;8.23;4.20;;;15.40;87.90;;;;;;5073136;28;20036;-72
2023/06/04 05:03:48;;;;;;;7.38;4.15;;;15.40;87.70;;;;;;5073389;28;20560;-72
2023/06/04 05:06:14;;;;;;;7.88;4.20;;;15.60;87.40;;;;;;5073397;28;20479;-72
2023/06/04 05:08:42;;;;;;;8.55;3.80;;;15.70;87.30;;;;;;5072205;28;20021;-72
2023/06/04 05:11:07;;;;;;;5.68;3.55;;;15.70;87.00;;;;;;5073375;28;20016;-72
2023/06/04 05:13:33;;;;;;;6.22;3.63;;;15.80;86.70;;;;;;5073449;28;20441;-72
2023/06/04 05:16:06;;;;;;;4.57;3.25;;;15.90;86.40;;;;;;5073662;28;20560;-72
2023/06/04 05:18:34;;;;;;;9.45;4.30;;;16.00;85.50;;;;;;5073396;28;20040;-72
2023/06/04 05:21:02;;;;;;;8.68;3.50;;;16.10;85.00;;;;;;5072960;28;20028;-72
2023/06/04 05:23:29;;;;;;;7.03;3.70;;;16.10;84.20;;;;;;5073674;28;20024;-73
2023/06/04 05:25:56;;;;;;;8.48;4.95;;;16.20;84.10;;;;;;5073328;28;20020;-73
2023/06/04 05:28:24;;;;;;;7.00;4.70;;;16.40;84.40;;;;;;5073495;28;20021;-76
2023/06/04 05:30:51;;;;;;;7.97;5.05;;;16.40;84.80;;;;;;5072891;28;20383;-76
2023/06/04 05:33:18;;;;;;;7.43;4.43;;;16.40;84.50;;;;;;5071585;28;20020;-76
2023/06/04 05:35:51;;;;;;;7.30;4.45;;;16.50;84.10;;;;;;5071607;28;20032;-75
2023/06/04 05:38:18;;;;;;;;;;;16.50;83.90;;;;;;5065979;28;20021;-74
2023/06/04 05:40:45;;;;;;;8.45;5.15;;;16.60;84.20;;;;;;5065434;28;19908;-75
2023/06/04 05:43:11;;;;;;;9.32;5.70;;;16.60;84.60;;;;;;5074733;28;20099;-75
2023/06/04 05:45:37;;;;;;;7.38;5.22;;;16.70;84.80;;;;;;5075268;28;20028;-74
2023/06/04 05:48:06;;;;;;;8.88;5.13;;;16.80;84.60;;;;;;5078785;28;20040;-75
2023/06/04 05:50:32;;;;;;;8.52;5.18;;;16.90;84.50;;;;;;5070986;28;20471;-75
2023/06/04 05:52:57;;;;;;;7.72;4.80;;;16.90;84.20;;;;;;5068719;28;20028;-74
2023/06/04 05:55:23;;;;;;;9.65;6.35;;;17.00;84.70;;;;;;5071631;28;20078;-75
2023/06/04 05:57:52;;;;;;;9.75;5.80;;;17.10;84.00;;;;;;5070958;28;20104;-74
2023/06/04 06:00:18;;;;;;;10.35;5.40;;;17.10;83.80;;;;;;5072203;28;20478;-75
2023/06/04 06:02:45;;;;;;;12.68;6.28;;;17.20;83.80;;;;;;5059770;28;20029;-75
2023/06/04 06:05:11;;;;;;;11.95;7.20;;;17.40;84.00;;;;;;5066767;28;20108;-75
2023/06/04 06:07:36;;;;;;;10.50;6.40;;;17.40;84.20;;;;;;5063369;28;20112;-74
2023/06/04 06:10:03;;;;;;;10.15;6.78;;;17.50;84.40;;;;;;5076764;28;20175;-74
2023/06/04 06:12:29;;;;;;;9.75;6.80;;;17.60;84.40;;;;;;5074538;28;20035;-73
2023/06/04 06:14:54;;;;;;;11.65;6.57;;;17.70;84.10;;;;;;5068715;28;20103;-73
2023/06/04 06:17:20;;;;;;;9.93;5.22;;;17.80;83.60;;;;;;5070094;28;20023;-71
2023/06/04 06:19:45;;;;;;;6.55;4.68;;;17.80;82.00;;;;;;5075570;28;20028;-75
2023/06/04 06:22:11;;;;;;;8.73;4.88;;;17.90;81.80;;;;;;5070785;28;20702;-74
2023/06/04 06:24:37;;;;;;;6.75;4.60;;;17.80;80.90;;;;;;5073321;28;20376;-74
2023/06/04 06:27:03;;;;;;;7.43;5.20;;;17.90;80.10;;;;;;5070098;28;20020;-74
2023/06/04 06:29:28;;;;;;;8.50;4.43;;;17.80;80.40;;;;;;5071301;28;20021;-74
2023/06/04 06:31:55;;;;;;;7.22;4.88;;;17.80;80.50;;;;;;5071619;28;20024;-70
2023/06/04 06:34:20;;;;;;;7.13;4.18;;;17.60;80.70;;;;;;5071156;28;20086;-70
2023/06/04 06:36:47;;;;;;;7.25;4.55;;;17.50;81.00;;;;;;5071464;28;20402;-70
2023/06/04 06:39:12;;;;;;;12.02;4.22;;;17.50;80.90;;;;;;5071457;28;20042;-70
2023/06/04 06:41:38;;;;;;;7.10;4.22;;;17.50;80.80;;;;;;5069484;28;20111;-69
2023/06/04 06:44:04;;;;;;;8.80;4.25;;;17.40;81.20;;;;;;5071674;28;20099;-70
2023/06/04 06:46:30;;;;;;;8.23;4.97;;;17.30;81.30;;;;;;5071890;28;20017;-69
2023/06/04 06:48:56;;;;;;;7.43;4.60;;;17.30;81.60;;;;;;5072382;28;20028;-69
2023/06/04 06:51:21;;;;;;;7.05;4.68;;;17.30;82.40;;;;;;5072340;28;20091;-68
2023/06/04 06:53:49;;;;;;;11.52;5.25;;;17.40;82.90;;;;;;5092948;28;20474;-68
2023/06/04 06:56:15;;;;;;;10.27;4.95;;;17.50;83.20;;;;;;5088853;28;20032;-74
2023/06/04 06:58:41;;;;;;;7.10;4.20;;;17.50;83.80;;;;;;5068561;28;20033;-74
2023/06/04 07:01:06;;;;;;;11.18;6.05;;;17.60;83.80;;;;;;5065943;28;20036;-74
2023/06/04 07:03:32;;;;;;;11.52;5.93;;;17.70;83.80;;;;;;5072258;28;20035;-70
2023/06/04 07:05:58;;;;;;;5.75;4.15;;;17.80;83.90;;;;;;5077207;28;20029;-74
2023/06/04 07:08:23;;;;;;;6.88;4.43;;;17.90;84.00;;;;;;5075293;28;20013;-72
2023/06/04 07:10:49;;;;;;;10.60;5.53;;;18.00;84.10;;;;;;5068102;28;20017;-72
2023/06/04 07:13:15;;;;;;;8.63;4.78;;;18.00;84.00;;;;;;5082139;28;20402;-72
2023/06/04 07:15:41;;;;;;;7.00;4.47;;;18.00;84.00;;;;;;5072593;28;20051;-73
2023/06/04 07:18:06;;;;;;;7.03;4.53;;;18.00;84.10;;;;;;5072951;28;20025;-74
2023/06/04 07:20:32;;;;;;;8.25;4.47;;;18.00;83.80;;;;;;5072592;28;20049;-72
2023/06/04 07:22:57;;;;;;;7.82;5.13;;;18.10;83.90;;;;;;5075464;28;20513;-72
2023/06/04 07:25:23;;;;;;;7.28;4.63;;;18.10;83.60;;;;;;5075691;28;20035;-72
2023/06/04 07:27:52;;;;;;;6.32;3.90;;;18.10;83.20;;;;;;5077064;28;20095;-73
2023/06/04 07:30:18;;;;;;;6.63;4.03;;;18.10;83.00;;;;;;5077963;28;20028;-73
2023/06/04 07:32:47;;;;;;;8.20;4.00;;;18.20;83.00;;;;;;5072456;28;20032;-73
2023/06/04 07:35:13;;;;;;;6.30;3.88;;;18.20;83.00;;;;;;5073572;28;20028;-73
2023/06/04 07:37:39;;;;;;;8.05;4.43;;;18.20;82.80;;;;;;5074402;28;20387;-73
2023/06/04 07:40:05;;;;;;;9.48;3.75;;;18.20;82.60;;;;;;5072648;28;20081;-73
2023/06/04 07:42:31;;;;;;;6.68;4.25;;;18.20;82.50;;;;;;5073431;28;20028;-72
2023/06/04 07:44:56;;;;;;;7.85;3.88;;;18.20;82.60;;;;;;5071610;28;20024;-72
2023/06/04 07:47:22;;;;;;;5.45;3.55;;;18.30;82.60;;;;;;5072263;28;20096;-73
2023/06/04 07:49:48;;;;;;;8.30;4.13;;;18.30;82.10;;;;;;5073090;28;20036;-73
2023/06/04 07:52:14;;;;;;;5.50;3.13;;;18.30;82.00;;;;;;5075131;28;20086;-73
2023/06/04 07:54:41;;;;;;;7.05;3.35;;;18.40;82.20;;;;;;5073372;28;20036;-71
2023/06/04 07:57:07;;;;;;;6.22;3.53;;;18.50;81.60;;;;;;5066491;28;20142;-72
2023/06/04 07:59:32;;;;;;;8.65;3.60;;;18.50;81.80;;;;;;5072926;28;20083;-72
2023/06/04 08:01:58;;;;;;;5.90;3.15;;;18.60;81.70;;;;;;5072017;28;20024;-72
2023/06/04 08:04:24;;;;;;;6.80;3.60;;;18.70;81.50;;;;;;5072736;28;20371;-73
2023/06/04 08:06:49;;;;;;;4.18;3.08;;;18.80;81.10;;;;;;5071916;28;20111;-74
2023/06/04 08:09:15;;;;;;;5.50;3.20;;;18.90;80.90;;;;;;5070307;28;20109;-74
2023/06/04 08:11:44;;;;;;;8.55;2.78;;;19.00;80.30;;;;;;5070670;28;20169;-74
2023/06/04 08:14:10;;;;;;;5.95;3.13;;;19.00;80.10;;;;;;5072182;28;20016;-74
2023/06/04 08:16:36;;;;;;;6.10;2.88;;;19.10;80.00;;;;;;5070111;28;20017;-74
2023/06/04 08:19:02;;;;;;;6.78;2.67;;;19.10;79.80;;;;;;5070529;28;20403;-74
2023/06/04 08:21:28;;;;;;;6.05;2.80;;;19.20;79.80;;;;;;5070581;28;20034;-75
2023/06/04 08:23:55;;;;;;;6.68;3.05;;;19.20;79.60;;;;;;5073122;28;20039;-74
2023/06/04 08:26:21;;;;;;;6.97;3.30;;;19.30;79.70;;;;;;5074054;28;20028;-74
2023/06/04 08:28:50;;;;;;;5.07;3.00;;;19.30;79.50;;;;;;5068294;28;20070;-73
2023/06/04 08:31:16;;;;;;;11.32;3.05;;;19.50;79.40;;;;;;5070136;28;20056;-74
2023/06/04 08:33:42;;;;;;;7.38;3.47;;;19.50;78.60;;;;;;5070968;28;20033;-74
2023/06/04 08:36:08;;;;;;;5.07;3.00;;;19.60;78.70;;;;;;5068773;28;20027;-74
2023/06/04 08:38:34;;;;;;;8.10;3.33;;;19.70;78.30;;;;;;5063285;28;20057;-74
2023/06/04 08:41:13;;;;;;;4.85;3.20;;;19.90;77.90;;;;;;5065821;28;20035;-74
2023/06/04 08:43:40;;;;;;;6.28;2.90;;;19.90;78.00;;;;;;5067780;28;20023;-74
2023/06/04 08:46:08;;;;;;;5.30;3.08;;;20.00;78.10;;;;;;5070127;28;20051;-74
2023/06/04 08:48:35;;;;;;;6.20;3.15;;;20.10;77.60;;;;;;5068999;28;20032;-75
2023/06/04 08:51:05;;;;;;;8.23;2.90;;;20.20;77.80;;;;;;5067458;28;20163;-69
2023/06/04 08:53:31;;;;;;;7.53;2.70;;;20.30;77.70;;;;;;5071779;28;20499;-69
2023/06/04 08:55:57;;;;;;;5.28;2.70;;;20.40;77.20;;;;;;5075084;28;20103;-70
2023/06/04 08:58:24;;;;;;;7.20;2.70;;;20.40;76.70;;;;;;5071049;28;20081;-70
2023/06/04 09:00:50;;;;;;;5.82;2.97;;;20.50;77.00;;;;;;5068014;28;20009;-70
2023/06/04 09:03:18;;;;;;;6.30;2.80;;;20.60;76.00;;;;;;5052352;28;20029;-70
2023/06/04 09:05:47;;;;;;;4.10;2.33;;;20.80;75.80;;;;;;5053843;28;20060;-70
2023/06/04 09:08:15;;;;;;;4.45;2.28;;;20.80;75.40;;;;;;5051657;28;20017;-70
2023/06/04 09:10:43;;;;;;;4.20;3.05;;;20.90;75.50;;;;;;5053623;28;20076;-70
2023/06/04 09:13:10;;;;;;;4.28;2.90;;;21.10;75.30;;;;;;5068964;28;20017;-70
2023/06/04 09:15:36;;;;;;;3.90;2.53;;;21.10;74.30;;;;;;5072190;28;20070;-69
2023/06/04 09:18:02;;;;;;;6.47;3.22;;;21.20;74.40;;;;;;5078631;28;20036;-70
2023/06/04 09:20:28;;;;;;;4.32;2.80;;;21.30;74.20;;;;;;5091851;28;20103;-72
2023/06/04 09:22:54;;;;;;;5.95;2.75;;;21.30;73.90;;;;;;5063824;28;20039;-71
2023/06/04 09:25:27;;;;;;;5.63;2.90;;;21.30;74.10;;;;;;5066421;28;20041;-72
2023/06/04 09:28:05;;;;;;;6.18;3.50;;;21.40;73.60;;;;;;5065411;28;20643;-72
2023/06/04 09:30:31;;;;;;;6.57;2.78;;;21.50;73.30;;;;;;5065190;28;20070;-72
2023/06/04 09:33:09;;;;;;;4.18;2.85;;;21.50;73.50;;;;;;5062325;28;20040;-70
2023/06/04 09:35:35;;;;;;;5.60;2.67;;;21.60;72.90;;;;;;5065163;28;20030;-70
2023/06/04 09:38:01;;;;;;;5.10;3.05;;;21.70;72.70;;;;;;5066944;28;20028;-71
2023/06/04 09:40:37;;;;;;;5.88;3.65;;;21.70;72.40;;;;;;5063215;28;20433;-70
2023/06/04 09:43:02;;;;;;;6.55;3.50;;;21.80;71.90;;;;;;5061694;28;20546;-73
2023/06/04 09:45:30;;;;;;;5.10;3.28;;;21.80;72.00;;;;;;5064255;28;20100;-71
2023/06/04 09:47:55;;;;;;;6.65;3.33;;;21.90;71.90;;;;;;5064658;28;20352;-74
2023/06/04 09:50:34;;;;;;;4.82;2.97;;;21.90;71.80;;;;;;5069644;28;20073;-75
2023/06/04 09:53:02;;;;;;;6.38;3.20;;;22.10;71.10;;;;;;5072218;28;20119;-74
2023/06/04 09:55:28;;;;;;;6.13;2.78;;;22.10;70.70;;;;;;5072702;28;20035;-74
2023/06/04 09:57:53;;;;;;;4.60;2.63;;;22.10;70.50;;;;;;5077325;28;20115;-74
2023/06/04 10:00:22;;;;;;;4.70;2.88;;;22.20;70.30;;;;;;5071724;28;20056;-74
2023/06/04 10:02:49;;;;;;;6.30;2.70;;;22.20;70.10;;;;;;5072314;28;20024;-72
2023/06/04 10:05:15;;;;;;;6.75;2.63;;;22.20;70.10;;;;;;5067666;28;20027;-74
2023/06/04 10:07:45;;;;;;;4.78;2.88;;;22.30;69.70;;;;;;5068992;28;20031;-72
2023/06/04 10:10:19;;;;;;;5.25;3.00;;;22.30;70.10;;;;;;5069426;28;20349;-73
2023/06/04 10:12:49;;;;;;;;;;;22.40;69.40;;;;;;5069794;28;20121;-73
2023/06/04 10:15:17;;;;;;;5.45;2.72;;;22.50;68.60;;;;;;5069731;28;20007;-73
2023/06/04 10:17:43;;;;;;;4.75;2.70;;;22.50;68.90;;;;;;5066699;28;20029;-73
2023/06/04 10:20:10;;;;;;;5.43;3.20;;;22.60;68.80;;;;;;5070079;28;20703;-73
2023/06/04 10:22:38;;;;;;;4.63;2.67;;;22.60;68.30;;;;;;5067583;28;20029;-73
2023/06/04 10:25:04;;;;;;;6.88;3.80;;;22.60;67.60;;;;;;5070378;28;20024;-73
2023/06/04 10:27:31;;;;;;;6.05;3.35;;;22.60;67.80;;;;;;5085926;28;20040;-73
2023/06/04 10:29:58;;;;;;;6.93;3.83;;;22.60;68.10;;;;;;5064277;28;20074;-75
2023/06/04 10:32:30;;;;;;;5.65;3.88;;;22.60;67.30;;;;;;5076215;28;20471;-74
2023/06/04 10:34:57;;;;;;;4.70;3.00;;;22.60;67.10;;;;;;5067790;28;20027;-73
2023/06/04 10:37:24;;;;;;;3.90;2.70;;;22.60;67.30;;;;;;5070218;28;20059;-73
2023/06/04 10:39:57;;;;;;;5.80;2.35;;;22.60;66.90;;;;;;5067581;28;20523;-74
2023/06/04 10:42:24;;;;;;;6.67;3.50;;;22.70;67.90;;;;;;5066600;28;20119;-74
2023/06/04 10:44:51;;;;;;;5.25;3.03;;;22.80;66.70;;;;;;5069804;28;20028;-74
2023/06/04 10:47:30;;;;;;;5.90;3.65;;;22.80;66.50;;;;;;5070066;28;20119;-73
2023/06/04 10:50:07;;;;;;;6.05;3.15;;;22.90;66.10;;;;;;5065520;28;20093;-73
2023/06/04 10:52:33;;;;;;;7.13;3.60;;;23.00;66.10;;;;;;5068140;28;20035;-74
2023/06/04 10:55:06;;;;;;;5.82;3.28;;;23.00;66.00;;;;;;5066822;28;20028;-74
2023/06/04 10:57:32;;;;;;;8.32;3.97;;;23.10;65.50;;;;;;5069561;28;20036;-74
2023/06/04 10:59:59;;;;;;;8.00;4.25;;;23.20;65.30;;;;;;5068937;28;20024;-74
2023/06/04 11:02:26;;;;;;;4.78;3.55;;;23.20;65.10;;;;;;5064106;28;20424;-73
2023/06/04 11:05:08;;;;;;;5.90;3.63;;;23.20;64.80;;;;;;5065637;28;20679;-74
2023/06/04 11:07:44;;;;;;;7.13;3.90;;;23.20;64.40;;;;;;5062850;28;20405;-73
2023/06/04 11:10:11;;;;;;;6.15;4.30;;;23.20;64.00;;;;;;5067313;28;20139;-74
2023/06/04 11:12:50;;;;;;;7.68;3.90;;;23.30;64.40;;;;;;5068389;28;20070;-74
2023/06/04 11:15:16;;;;;;;4.78;3.38;;;23.30;63.90;;;;;;5064035;28;20036;-73
2023/06/04 11:17:52;;;;;;;5.72;3.60;;;23.30;64.30;;;;;;5064163;28;20177;-73
2023/06/04 11:20:19;;;;;;;8.93;4.45;;;23.40;64.30;;;;;;5062332;28;20051;-75
2023/06/04 11:22:56;;;;;;;15.18;6.70;;;23.40;63.50;;;;;;5068210;28;20090;-74
2023/06/04 11:25:23;;;;;;;8.38;4.05;;;23.40;63.20;;;;;;5066811;28;20100;-75
2023/06/04 11:27:52;;;;;;;6.32;3.75;;;23.40;63.30;;;;;;5065427;28;20099;-75
2023/06/04 11:30:18;;;;;;;13.68;4.90;;;23.40;63.10;;;;;;5067840;28;20021;-74
2023/06/04 11:32:44;;;;;;;6.20;3.97;;;23.40;63.30;;;;;;5068199;28;20020;-75
2023/06/04 11:35:13;;;;;;;6.40;3.90;;;23.50;63.40;;;;;;5073776;28;20166;-74
2023/06/04 11:37:39;;;;;;;6.07;3.83;;;23.50;63.60;;;;;;5074590;28;20024;-74
2023/06/04 11:40:18;;;;;;;7.63;3.83;;;23.50;63.30;;;;;;5073185;28;20099;-74
2023/06/04 11:42:48;;;;;;;5.70;3.67;;;23.40;63.20;;;;;;5065692;28;20566;-74
2023/06/04 11:45:15;;;;;;;6.82;4.28;;;23.40;63.40;;;;;;5058925;28;20020;-74
2023/06/04 11:47:49;;;;;;;4.22;3.40;;;23.30;63.30;;;;;;5073119;28;20453;-74
2023/06/04 11:50:15;;;;;;;4.57;3.88;;;23.30;63.30;;;;;;5067206;28;20016;-75
2023/06/04 11:52:41;;;;;;;8.55;4.00;;;23.20;62.70;;;;;;5072677;28;20114;-74
2023/06/04 11:55:14;;;;;;;7.28;4.20;;;23.20;62.90;;;;;;5073596;28;20040;-74
2023/06/04 11:57:40;;;;;;;12.80;4.00;;;23.20;63.00;;;;;;5074509;28;20110;-76
2023/06/04 12:00:10;;;;;;;5.05;3.80;;;23.30;62.80;;;;;;5071346;28;20036;-75
2023/06/04 12:02:37;;;;;;;9.80;4.13;;;23.30;62.60;;;;;;5073015;28;20032;-74
2023/06/04 12:05:14;;;;;;;6.25;3.90;;;23.30;62.70;;;;;;5073717;28;20017;-74
2023/06/04 12:07:40;;;;;;;8.43;3.95;;;23.40;62.60;;;;;;5068552;28;20499;-74
2023/06/04 12:10:09;;;;;;;9.15;4.60;;;23.40;62.50;;;;;;5074172;28;20012;-75
2023/06/04 12:12:35;;;;;;;6.97;3.60;;;23.50;61.70;;;;;;5068947;28;20101;-76
2023/06/04 12:15:01;;;;;;;7.18;3.90;;;23.50;61.80;;;;;;5082963;28;20017;-76
2023/06/04 12:17:26;;;;;;;4.32;3.22;;;23.50;61.90;;;;;;5077350;28;20049;-74
2023/06/04 12:19:52;;;;;;;5.82;3.90;;;23.60;61.30;;;;;;5064087;28;20106;-75
2023/06/04 12:22:19;;;;;;;8.15;4.20;;;23.60;61.20;;;;;;5069389;28;20029;-74
2023/06/04 12:24:57;;;;;;;9.30;4.43;;;23.60;61.00;;;;;;5064418;28;20031;-76
2023/06/04 12:27:25;;;;;;;13.95;6.85;;;23.60;61.20;;;;;;5066058;28;20119;-75
2023/06/04 12:30:02;;;;;;;5.78;4.28;;;23.70;60.70;;;;;;5073573;28;20024;-74
2023/06/04 12:32:27;;;;;;;7.57;5.03;;;23.80;60.50;;;;;;5071499;28;20142;-74
2023/06/04 12:34:54;;;;;;;9.00;4.10;;;23.90;60.80;;;;;;5067208;28;20384;-74
2023/06/04 12:37:21;;;;;;;10.27;4.60;;;23.90;60.20;;;;;;5066544;28;20037;-74
2023/06/04 12:39:46;;;;;;;7.05;4.13;;;23.90;59.80;;;;;;5068745;28;20055;-73
2023/06/04 12:42:12;;;;;;;6.30;4.50;;;23.90;60.00;;;;;;5067451;28;20090;-74
2023/06/04 12:44:41;;;;;;;4.63;4.05;;;23.80;58.40;;;;;;5069153;28;20024;-73
2023/06/04 12:47:08;;;;;;;6.90;3.78;;;23.80;59.00;;;;;;5069839;28;20024;-74